New Richmond, Wisconsin
Current Conditions -  °F | °C
As of 12:15 AM on Monday 26 Jan 2015 (Local Time) from KRNH Reporting Station
Broken Clouds Broken Clouds  
Wind Chill:   Ceiling: 11000
Heat Index: 19°   Visibility: 10mi
Dew Point: 14°   Wind: 8mph
Humidity: 80%   Direction: 180°S
Pressure: 29.96"   Gusts: NA
Location:  45.12°N, 92.54°W
Report Text: KRNH 260615Z AUTO 18007KT 10SM BKN110 M07/M10 A2996 RMK AO2 T10711100
Loading
Personal Weather Stations






























Interactive Weather Map New forecast layout! Learn more

10-Day Weather Forecast

Advertisements
Track Severe Weather on mobile